Detall de PIREP

Printer-friendly versionPDF version

[2009/12/13 18:53:00]
Flight IATA:CT1001
Pilot Number:026
Company ICAO:CAT
Aircraft Type:DC85/A
PAX:136
Departing Airport: TNCA
Destination Airport: MROC
Alternate Airport:SKBQ
Online: VATSIM
Route: DCT SELAN UM525 TBG UG440 ISEBA
Flight Level:FL380
No Slew and time accel
No pause
Crash detect
Detect pilot in Cockpit between each 30 and 45 minutes
18:53 Zero fuel Weight: 185027 Lbs, Fuel Weight: 39997 Lbs
18:53 VATSIM:TNCA 131700Z 07020G30KT 9999 FEW022 31/24 Q1012
18:53 VATSIM:MROC 131700Z 10011KT 9999 FEW045 27/18 A2997 RMK FEW130 NOSIG
18:53 VOICE CATALONIAN / FLY-IN VATCA
18:56 Parking Brakes off
19:03 Take-off
19:03 Take off Weight: 224035 Lbs
19:03 Wind: 077º @ 020 Knots Heading: 100º
19:03 POS N12º 30´ 14´´ W070º 00´ 39´´
19:04 Flaps:3 at 159 Knots
19:04 Gear Up: 161 Knots
19:04 Flaps:2 at 174 Knots
19:05 Flaps:1 at 200 Knots
19:06 Flaps:0 at 232 Knots
1
9:19 Wind:092º@049 Knots Heading: 293º Ground Speed: 514 Knots Altitude 33192 ft
19:25 TOC
19:25 Fuel Weight: 32378 Lb
19:34 Wind:084º@034 Knots Heading: 228º Ground Speed: 520 Knots Altitude 37926 ft
19:49 Wind:046º@023 Knots Heading: 230º Ground Speed: 424 Knots Altitude 37860 ft
20:00 TOD
20:00 Fuel Weight: 27210 Lb
20:04 Wind:007º@028 Knots Heading: 232º Ground Speed: 488 Knots Altitude 35915 ft
20:19 Wind:045º@014 Knots Heading: 260º Ground Speed: 468 Knots Altitude 35803 ft
20:34 Wind:064º@011 Knots Heading: 259º Ground Speed: 489 Knots Altitude 35800 ft
20:49 Wind:350º@026 Knots Heading: 265º Ground Speed: 471 Knots Altitude 35908 ft
21:04 Wind:079º@033 Knots Heading: 271º Ground Speed: 410 Knots Altitude 20403 ft
21:13 Flaps:1 at 199 Knots
21:16 Flaps:2 at 139 Knots
21:17 Flaps:3 at 167 Knots
21:17 Gear Down: 174 Knots
21:18 Flaps:4 at 157 Knots
21:19
Wind:092º@010 Knots Heading: 070º Ground Speed: 157 Knots Altitude 4343 ft
21:20 Flaps:5 at 129 Knots
21:20 TouchDown:Rate -208 ft/min Speed: 141 Knots
21:21 VATSIM:MROC 132000Z 10010KT 9999 SCT045 29/17 A2987 RMK TCU DST SW VIS 8000NE TEMPO -RA
21:21 Land
21:21 Wind:082º@010 Knots
21:21 Heading: 070º
21:21 Flight Duration: 02:17
21:21 Landing Weight: 200663 Lbs
21:21 POS N09º 59´ 44´´ W084º 12´ 33´´
21:24 Parking brakes on
21:24 Block to Block Duration: 02:28
21:24 Final Fuel: 15390 Lbls
21:24 Spent Fuel: 24607 Lbls
21:24 Flight Length: 998 NM
21:24 TOD Land Length: 567 NM

Exportar CSV

Powered by Drupal - Modified by Danger4k